sensor_id;sensor_type;location;lat;lon;timestamp;P1;durP1;ratioP1;P2;durP2;ratioP2
18789;SDS011;9523;42.650;23.386;2023-07-31T00:00:10;3.03;;;2.72;;
18789;SDS011;9523;42.650;23.386;2023-07-31T00:02:37;5.13;;;3.10;;
18789;SDS011;9523;42.650;23.386;2023-07-31T00:05:04;3.30;;;3.00;;
18789;SDS011;9523;42.650;23.386;2023-07-31T00:07:32;3.13;;;2.83;;
18789;SDS011;9523;42.650;23.386;2023-07-31T00:09:59;3.78;;;3.20;;
18789;SDS011;9523;42.650;23.386;2023-07-31T00:12:25;4.55;;;3.05;;
18789;SDS011;9523;42.650;23.386;2023-07-31T00:14:52;3.70;;;3.10;;
18789;SDS011;9523;42.650;23.386;2023-07-31T00:17:18;10.73;;;6.00;;
18789;SDS011;9523;42.650;23.386;2023-07-31T00:19:45;6.75;;;4.75;;
18789;SDS011;9523;42.650;23.386;2023-07-31T00:22:14;4.22;;;3.22;;
18789;SDS011;9523;42.650;23.386;2023-07-31T00:24:42;6.35;;;3.72;;
18789;SDS011;9523;42.650;23.386;2023-07-31T00:27:09;3.83;;;3.28;;
18789;SDS011;9523;42.650;23.386;2023-07-31T00:29:35;20.25;;;12.57;;
18789;SDS011;9523;42.650;23.386;2023-07-31T00:32:02;4.03;;;3.25;;
18789;SDS011;9523;42.650;23.386;2023-07-31T00:34:29;3.28;;;2.97;;
18789;SDS011;9523;42.650;23.386;2023-07-31T00:36:55;5.13;;;2.90;;
18789;SDS011;9523;42.650;23.386;2023-07-31T00:39:22;5.10;;;3.53;;
18789;SDS011;9523;42.650;23.386;2023-07-31T00:41:50;4.43;;;3.90;;
18789;SDS011;9523;42.650;23.386;2023-07-31T00:44:16;3.65;;;3.35;;
18789;SDS011;9523;42.650;23.386;2023-07-31T00:46:43;3.88;;;3.22;;
18789;SDS011;9523;42.650;23.386;2023-07-31T00:49:10;4.72;;;3.10;;
18789;SDS011;9523;42.650;23.386;2023-07-31T00:51:37;8.93;;;5.68;;
18789;SDS011;9523;42.650;23.386;2023-07-31T00:54:03;3.70;;;3.40;;
18789;SDS011;9523;42.650;23.386;2023-07-31T00:56:30;4.57;;;3.63;;
18789;SDS011;9523;42.650;23.386;2023-07-31T00:58:58;4.40;;;3.90;;
18789;SDS011;9523;42.650;23.386;2023-07-31T01:01:25;6.25;;;3.80;;
18789;SDS011;9523;42.650;23.386;2023-07-31T01:03:51;5.80;;;5.18;;
18789;SDS011;9523;42.650;23.386;2023-07-31T01:06:22;6.13;;;5.53;;
18789;SDS011;9523;42.650;23.386;2023-07-31T01:08:58;7.30;;;5.97;;
18789;SDS011;9523;42.650;23.386;2023-07-31T01:11:28;6.10;;;5.40;;
18789;SDS011;9523;42.650;23.386;2023-07-31T01:13:55;6.78;;;5.70;;
18789;SDS011;9523;42.650;23.386;2023-07-31T01:16:23;7.40;;;6.03;;
18789;SDS011;9523;42.650;23.386;2023-07-31T01:18:49;7.63;;;5.75;;
18789;SDS011;9523;42.650;23.386;2023-07-31T01:21:23;7.60;;;6.82;;
18789;SDS011;9523;42.650;23.386;2023-07-31T01:23:57;11.02;;;7.90;;
18789;SDS011;9523;42.650;23.386;2023-07-31T01:26:30;8.35;;;7.43;;
18789;SDS011;9523;42.650;23.386;2023-07-31T01:29:00;10.93;;;7.95;;
18789;SDS011;9523;42.650;23.386;2023-07-31T01:31:28;12.25;;;8.90;;
18789;SDS011;9523;42.650;23.386;2023-07-31T01:33:56;11.40;;;9.32;;
18789;SDS011;9523;42.650;23.386;2023-07-31T01:36:24;14.45;;;9.52;;
18789;SDS011;9523;42.650;23.386;2023-07-31T01:38:51;13.15;;;10.68;;
18789;SDS011;9523;42.650;23.386;2023-07-31T01:41:17;13.35;;;10.95;;
18789;SDS011;9523;42.650;23.386;2023-07-31T01:43:45;14.85;;;10.98;;
18789;SDS011;9523;42.650;23.386;2023-07-31T01:46:12;14.57;;;11.50;;
18789;SDS011;9523;42.650;23.386;2023-07-31T01:48:39;16.45;;;12.35;;
18789;SDS011;9523;42.650;23.386;2023-07-31T01:51:05;16.85;;;13.85;;
18789;SDS011;9523;42.650;23.386;2023-07-31T01:53:32;17.33;;;13.30;;
18789;SDS011;9523;42.650;23.386;2023-07-31T01:55:58;21.75;;;14.63;;
18789;SDS011;9523;42.650;23.386;2023-07-31T01:58:25;18.25;;;15.15;;
18789;SDS011;9523;42.650;23.386;2023-07-31T02:00:53;20.02;;;15.57;;
18789;SDS011;9523;42.650;23.386;2023-07-31T02:03:19;19.65;;;14.52;;
18789;SDS011;9523;42.650;23.386;2023-07-31T02:05:46;19.40;;;15.60;;
18789;SDS011;9523;42.650;23.386;2023-07-31T02:08:13;21.67;;;16.55;;
18789;SDS011;9523;42.650;23.386;2023-07-31T02:10:40;21.95;;;17.30;;
18789;SDS011;9523;42.650;23.386;2023-07-31T02:13:06;20.88;;;15.77;;
18789;SDS011;9523;42.650;23.386;2023-07-31T02:15:33;22.13;;;16.97;;
18789;SDS011;9523;42.650;23.386;2023-07-31T02:18:01;21.53;;;15.30;;
18789;SDS011;9523;42.650;23.386;2023-07-31T02:20:27;23.05;;;18.10;;
18789;SDS011;9523;42.650;23.386;2023-07-31T02:22:54;21.80;;;16.70;;
18789;SDS011;9523;42.650;23.386;2023-07-31T02:25:20;22.17;;;17.33;;
18789;SDS011;9523;42.650;23.386;2023-07-31T02:27:47;23.53;;;17.10;;
18789;SDS011;9523;42.650;23.386;2023-07-31T02:30:14;23.73;;;16.52;;
18789;SDS011;9523;42.650;23.386;2023-07-31T02:32:41;22.47;;;16.97;;
18789;SDS011;9523;42.650;23.386;2023-07-31T02:35:09;22.77;;;17.10;;
18789;SDS011;9523;42.650;23.386;2023-07-31T02:37:36;27.17;;;18.53;;
18789;SDS011;9523;42.650;23.386;2023-07-31T02:40:04;23.50;;;17.90;;
18789;SDS011;9523;42.650;23.386;2023-07-31T02:42:31;22.38;;;18.15;;
18789;SDS011;9523;42.650;23.386;2023-07-31T02:44:57;25.23;;;18.38;;
18789;SDS011;9523;42.650;23.386;2023-07-31T02:47:24;22.35;;;16.98;;
18789;SDS011;9523;42.650;23.386;2023-07-31T02:49:50;22.67;;;17.95;;
18789;SDS011;9523;42.650;23.386;2023-07-31T02:52:18;21.77;;;17.17;;
18789;SDS011;9523;42.650;23.386;2023-07-31T02:54:45;22.80;;;16.45;;
18789;SDS011;9523;42.650;23.386;2023-07-31T02:57:11;21.85;;;17.23;;
18789;SDS011;9523;42.650;23.386;2023-07-31T02:59:38;24.30;;;18.07;;
18789;SDS011;9523;42.650;23.386;2023-07-31T03:02:04;23.17;;;17.80;;
18789;SDS011;9523;42.650;23.386;2023-07-31T03:04:31;21.05;;;15.55;;
18789;SDS011;9523;42.650;23.386;2023-07-31T03:06:57;20.52;;;16.15;;
18789;SDS011;9523;42.650;23.386;2023-07-31T03:09:25;22.37;;;16.90;;
18789;SDS011;9523;42.650;23.386;2023-07-31T03:11:53;20.85;;;16.45;;
18789;SDS011;9523;42.650;23.386;2023-07-31T03:14:20;24.70;;;17.43;;
18789;SDS011;9523;42.650;23.386;2023-07-31T03:16:47;22.30;;;16.20;;
18789;SDS011;9523;42.650;23.386;2023-07-31T03:19:13;21.17;;;15.38;;
18789;SDS011;9523;42.650;23.386;2023-07-31T03:21:40;20.48;;;16.65;;
18789;SDS011;9523;42.650;23.386;2023-07-31T03:24:06;21.13;;;16.85;;
18789;SDS011;9523;42.650;23.386;2023-07-31T03:26:34;20.23;;;15.30;;
18789;SDS011;9523;42.650;23.386;2023-07-31T03:29:01;23.80;;;17.67;;
18789;SDS011;9523;42.650;23.386;2023-07-31T03:31:28;21.30;;;15.88;;
18789;SDS011;9523;42.650;23.386;2023-07-31T03:33:54;22.63;;;17.10;;
18789;SDS011;9523;42.650;23.386;2023-07-31T03:36:24;23.95;;;16.20;;
18789;SDS011;9523;42.650;23.386;2023-07-31T03:38:51;21.30;;;16.83;;
18789;SDS011;9523;42.650;23.386;2023-07-31T03:41:18;23.30;;;16.77;;
18789;SDS011;9523;42.650;23.386;2023-07-31T03:43:50;23.63;;;17.55;;
18789;SDS011;9523;42.650;23.386;2023-07-31T03:46:17;25.52;;;17.58;;
18789;SDS011;9523;42.650;23.386;2023-07-31T03:48:45;23.13;;;17.85;;
18789;SDS011;9523;42.650;23.386;2023-07-31T03:51:12;25.17;;;17.35;;
18789;SDS011;9523;42.650;23.386;2023-07-31T03:53:38;23.98;;;17.70;;
18789;SDS011;9523;42.650;23.386;2023-07-31T03:56:05;22.65;;;17.27;;
18789;SDS011;9523;42.650;23.386;2023-07-31T03:58:31;24.50;;;17.10;;
18789;SDS011;9523;42.650;23.386;2023-07-31T04:00:59;25.00;;;17.50;;
18789;SDS011;9523;42.650;23.386;2023-07-31T04:03:26;25.83;;;16.67;;
18789;SDS011;9523;42.650;23.386;2023-07-31T04:05:53;22.80;;;16.17;;
18789;SDS011;9523;42.650;23.386;2023-07-31T04:08:20;21.67;;;16.23;;
18789;SDS011;9523;42.650;23.386;2023-07-31T04:10:48;24.23;;;17.67;;
18789;SDS011;9523;42.650;23.386;2023-07-31T04:13:14;26.70;;;17.52;;
18789;SDS011;9523;42.650;23.386;2023-07-31T04:15:41;22.23;;;16.75;;
18789;SDS011;9523;42.650;23.386;2023-07-31T04:18:09;24.13;;;16.38;;
18789;SDS011;9523;42.650;23.386;2023-07-31T04:20:36;20.90;;;15.35;;
18789;SDS011;9523;42.650;23.386;2023-07-31T04:23:03;24.70;;;17.80;;
18789;SDS011;9523;42.650;23.386;2023-07-31T04:25:29;20.23;;;13.52;;
18789;SDS011;9523;42.650;23.386;2023-07-31T04:27:56;23.97;;;17.63;;
18789;SDS011;9523;42.650;23.386;2023-07-31T04:30:24;23.08;;;17.20;;
18789;SDS011;9523;42.650;23.386;2023-07-31T04:32:50;22.10;;;15.77;;
18789;SDS011;9523;42.650;23.386;2023-07-31T04:35:18;25.05;;;16.23;;
18789;SDS011;9523;42.650;23.386;2023-07-31T04:37:45;25.00;;;18.25;;
18789;SDS011;9523;42.650;23.386;2023-07-31T04:40:14;24.05;;;17.50;;
18789;SDS011;9523;42.650;23.386;2023-07-31T04:42:40;24.02;;;17.80;;
18789;SDS011;9523;42.650;23.386;2023-07-31T04:45:08;29.20;;;20.17;;
18789;SDS011;9523;42.650;23.386;2023-07-31T04:47:34;24.60;;;17.30;;
18789;SDS011;9523;42.650;23.386;2023-07-31T04:50:01;23.50;;;16.90;;
18789;SDS011;9523;42.650;23.386;2023-07-31T04:52:29;20.85;;;15.70;;
18789;SDS011;9523;42.650;23.386;2023-07-31T04:54:55;21.58;;;15.40;;
18789;SDS011;9523;42.650;23.386;2023-07-31T04:57:22;22.17;;;16.73;;
18789;SDS011;9523;42.650;23.386;2023-07-31T04:59:49;21.23;;;15.70;;
18789;SDS011;9523;42.650;23.386;2023-07-31T05:02:15;21.98;;;15.45;;
18789;SDS011;9523;42.650;23.386;2023-07-31T05:04:42;24.70;;;16.02;;
18789;SDS011;9523;42.650;23.386;2023-07-31T05:07:08;18.80;;;13.90;;
18789;SDS011;9523;42.650;23.386;2023-07-31T05:09:36;21.70;;;15.60;;
18789;SDS011;9523;42.650;23.386;2023-07-31T05:12:04;19.45;;;14.80;;
18789;SDS011;9523;42.650;23.386;2023-07-31T05:14:31;18.83;;;14.85;;
18789;SDS011;9523;42.650;23.386;2023-07-31T05:16:58;23.48;;;16.13;;
18789;SDS011;9523;42.650;23.386;2023-07-31T05:19:24;22.83;;;15.48;;
18789;SDS011;9523;42.650;23.386;2023-07-31T05:21:51;23.20;;;16.17;;
18789;SDS011;9523;42.650;23.386;2023-07-31T05:24:17;20.92;;;14.65;;
18789;SDS011;9523;42.650;23.386;2023-07-31T05:26:45;20.73;;;15.45;;
18789;SDS011;9523;42.650;23.386;2023-07-31T05:29:12;18.98;;;14.38;;
18789;SDS011;9523;42.650;23.386;2023-07-31T05:31:39;17.30;;;11.70;;
18789;SDS011;9523;42.650;23.386;2023-07-31T05:34:05;17.38;;;12.90;;
18789;SDS011;9523;42.650;23.386;2023-07-31T05:36:32;15.45;;;12.23;;
18789;SDS011;9523;42.650;23.386;2023-07-31T05:38:58;17.38;;;12.35;;
18789;SDS011;9523;42.650;23.386;2023-07-31T05:41:25;16.92;;;13.07;;
18789;SDS011;9523;42.650;23.386;2023-07-31T05:43:54;14.60;;;11.45;;
18789;SDS011;9523;42.650;23.386;2023-07-31T05:46:22;14.50;;;11.98;;
18789;SDS011;9523;42.650;23.386;2023-07-31T05:48:49;13.50;;;11.20;;
18789;SDS011;9523;42.650;23.386;2023-07-31T05:51:15;12.38;;;10.43;;
18789;SDS011;9523;42.650;23.386;2023-07-31T05:53:42;13.82;;;9.88;;
18789;SDS011;9523;42.650;23.386;2023-07-31T05:56:09;12.70;;;10.00;;
18789;SDS011;9523;42.650;23.386;2023-07-31T05:58:35;11.43;;;9.15;;
18789;SDS011;9523;42.650;23.386;2023-07-31T06:01:03;9.80;;;7.82;;
18789;SDS011;9523;42.650;23.386;2023-07-31T06:03:30;11.93;;;8.27;;
18789;SDS011;9523;42.650;23.386;2023-07-31T06:05:56;11.10;;;7.95;;
18789;SDS011;9523;42.650;23.386;2023-07-31T06:08:22;11.60;;;8.55;;
18789;SDS011;9523;42.650;23.386;2023-07-31T06:10:49;10.43;;;7.85;;
18789;SDS011;9523;42.650;23.386;2023-07-31T06:13:16;11.57;;;8.25;;
18789;SDS011;9523;42.650;23.386;2023-07-31T06:15:43;11.13;;;7.93;;
18789;SDS011;9523;42.650;23.386;2023-07-31T06:18:11;10.05;;;7.82;;
18789;SDS011;9523;42.650;23.386;2023-07-31T06:20:38;8.50;;;7.07;;
18789;SDS011;9523;42.650;23.386;2023-07-31T06:23:05;7.10;;;5.90;;
18789;SDS011;9523;42.650;23.386;2023-07-31T06:25:32;6.85;;;5.18;;
18789;SDS011;9523;42.650;23.386;2023-07-31T06:28:02;5.65;;;4.75;;
18789;SDS011;9523;42.650;23.386;2023-07-31T06:30:29;6.15;;;4.25;;
18789;SDS011;9523;42.650;23.386;2023-07-31T06:32:55;5.75;;;3.88;;
18789;SDS011;9523;42.650;23.386;2023-07-31T06:35:23;4.82;;;4.32;;
18789;SDS011;9523;42.650;23.386;2023-07-31T06:37:52;4.95;;;3.83;;
18789;SDS011;9523;42.650;23.386;2023-07-31T06:40:19;5.10;;;3.70;;
18789;SDS011;9523;42.650;23.386;2023-07-31T06:42:45;5.25;;;4.20;;
18789;SDS011;9523;42.650;23.386;2023-07-31T06:45:12;4.47;;;4.07;;
18789;SDS011;9523;42.650;23.386;2023-07-31T06:47:38;5.32;;;4.35;;
18789;SDS011;9523;42.650;23.386;2023-07-31T06:50:05;5.45;;;4.55;;
18789;SDS011;9523;42.650;23.386;2023-07-31T06:52:33;5.90;;;4.43;;
18789;SDS011;9523;42.650;23.386;2023-07-31T06:55:00;5.82;;;4.35;;
18789;SDS011;9523;42.650;23.386;2023-07-31T06:57:27;5.13;;;4.60;;
18789;SDS011;9523;42.650;23.386;2023-07-31T06:59:54;7.00;;;4.20;;
18789;SDS011;9523;42.650;23.386;2023-07-31T07:02:20;6.10;;;3.95;;
18789;SDS011;9523;42.650;23.386;2023-07-31T07:04:47;5.65;;;3.90;;
18789;SDS011;9523;42.650;23.386;2023-07-31T07:07:15;5.18;;;4.15;;
18789;SDS011;9523;42.650;23.386;2023-07-31T07:09:43;5.88;;;3.75;;
18789;SDS011;9523;42.650;23.386;2023-07-31T07:12:10;5.03;;;3.67;;
18789;SDS011;9523;42.650;23.386;2023-07-31T07:14:36;3.97;;;3.45;;
18789;SDS011;9523;42.650;23.386;2023-07-31T07:17:03;4.30;;;3.33;;
18789;SDS011;9523;42.650;23.386;2023-07-31T07:19:30;4.25;;;3.38;;
18789;SDS011;9523;42.650;23.386;2023-07-31T07:21:56;4.15;;;3.53;;
18789;SDS011;9523;42.650;23.386;2023-07-31T07:24:25;4.22;;;3.40;;
18789;SDS011;9523;42.650;23.386;2023-07-31T07:26:53;3.38;;;3.08;;
18789;SDS011;9523;42.650;23.386;2023-07-31T07:29:19;4.68;;;3.53;;
18789;SDS011;9523;42.650;23.386;2023-07-31T07:31:46;5.13;;;3.20;;
18789;SDS011;9523;42.650;23.386;2023-07-31T07:34:12;3.30;;;3.00;;
18789;SDS011;9523;42.650;23.386;2023-07-31T07:36:39;4.07;;;3.10;;
18789;SDS011;9523;42.650;23.386;2023-07-31T07:39:06;3.80;;;2.90;;
18789;SDS011;9523;42.650;23.386;2023-07-31T07:41:32;3.35;;;3.00;;
18789;SDS011;9523;42.650;23.386;2023-07-31T07:44:00;7.28;;;4.10;;
18789;SDS011;9523;42.650;23.386;2023-07-31T07:46:27;3.72;;;3.28;;
18789;SDS011;9523;42.650;23.386;2023-07-31T07:48:54;3.55;;;3.22;;
18789;SDS011;9523;42.650;23.386;2023-07-31T07:51:20;3.45;;;2.92;;
18789;SDS011;9523;42.650;23.386;2023-07-31T07:53:47;6.72;;;3.58;;
18789;SDS011;9523;42.650;23.386;2023-07-31T07:56:13;3.72;;;3.13;;
18789;SDS011;9523;42.650;23.386;2023-07-31T07:58:40;6.80;;;3.33;;
18789;SDS011;9523;42.650;23.386;2023-07-31T08:01:08;5.20;;;3.22;;
18789;SDS011;9523;42.650;23.386;2023-07-31T08:03:35;6.25;;;3.83;;
18789;SDS011;9523;42.650;23.386;2023-07-31T08:06:01;4.50;;;3.45;;
18789;SDS011;9523;42.650;23.386;2023-07-31T08:08:28;2.67;;;2.38;;
18789;SDS011;9523;42.650;23.386;2023-07-31T08:10:55;3.17;;;2.38;;
18789;SDS011;9523;42.650;23.386;2023-07-31T08:13:21;3.53;;;2.65;;
18789;SDS011;9523;42.650;23.386;2023-07-31T08:15:48;5.72;;;2.88;;
18789;SDS011;9523;42.650;23.386;2023-07-31T08:18:16;4.63;;;2.58;;
18789;SDS011;9523;42.650;23.386;2023-07-31T08:20:42;6.13;;;3.33;;
18789;SDS011;9523;42.650;23.386;2023-07-31T08:23:09;4.30;;;2.78;;
18789;SDS011;9523;42.650;23.386;2023-07-31T08:25:36;3.22;;;2.92;;
18789;SDS011;9523;42.650;23.386;2023-07-31T08:28:03;3.92;;;2.83;;
18789;SDS011;9523;42.650;23.386;2023-07-31T08:30:33;3.50;;;2.95;;
18789;SDS011;9523;42.650;23.386;2023-07-31T08:33:00;4.47;;;2.92;;
18789;SDS011;9523;42.650;23.386;2023-07-31T08:35:31;3.72;;;2.80;;
18789;SDS011;9523;42.650;23.386;2023-07-31T08:37:57;3.28;;;2.75;;
18789;SDS011;9523;42.650;23.386;2023-07-31T08:40:24;4.47;;;3.05;;
18789;SDS011;9523;42.650;23.386;2023-07-31T08:42:53;3.92;;;3.47;;
18789;SDS011;9523;42.650;23.386;2023-07-31T08:45:19;3.63;;;3.00;;
18789;SDS011;9523;42.650;23.386;2023-07-31T08:47:47;3.75;;;2.50;;
18789;SDS011;9523;42.650;23.386;2023-07-31T08:50:14;4.18;;;3.00;;
18789;SDS011;9523;42.650;23.386;2023-07-31T08:52:42;3.95;;;2.47;;
18789;SDS011;9523;42.650;23.386;2023-07-31T08:55:09;2.97;;;2.63;;
18789;SDS011;9523;42.650;23.386;2023-07-31T08:57:36;5.20;;;2.55;;
18789;SDS011;9523;42.650;23.386;2023-07-31T09:00:04;3.00;;;2.70;;
18789;SDS011;9523;42.650;23.386;2023-07-31T09:02:34;3.78;;;2.85;;
18789;SDS011;9523;42.650;23.386;2023-07-31T09:05:01;2.88;;;2.30;;
18789;SDS011;9523;42.650;23.386;2023-07-31T09:07:29;3.65;;;2.40;;
18789;SDS011;9523;42.650;23.386;2023-07-31T09:09:58;2.60;;;2.40;;
18789;SDS011;9523;42.650;23.386;2023-07-31T09:12:25;2.80;;;2.50;;
18789;SDS011;9523;42.650;23.386;2023-07-31T09:14:51;4.05;;;2.95;;
18789;SDS011;9523;42.650;23.386;2023-07-31T09:17:28;3.20;;;2.90;;
18789;SDS011;9523;42.650;23.386;2023-07-31T09:19:55;3.90;;;2.65;;
18789;SDS011;9523;42.650;23.386;2023-07-31T09:22:25;3.28;;;2.72;;
18789;SDS011;9523;42.650;23.386;2023-07-31T09:24:58;4.50;;;2.78;;
18789;SDS011;9523;42.650;23.386;2023-07-31T09:27:33;3.00;;;2.60;;
18789;SDS011;9523;42.650;23.386;2023-07-31T09:30:11;3.05;;;2.42;;
18789;SDS011;9523;42.650;23.386;2023-07-31T09:32:38;2.90;;;2.15;;
18789;SDS011;9523;42.650;23.386;2023-07-31T09:35:12;3.85;;;2.17;;
18789;SDS011;9523;42.650;23.386;2023-07-31T09:37:39;3.17;;;2.53;;
18789;SDS011;9523;42.650;23.386;2023-07-31T09:40:08;4.57;;;2.85;;
18789;SDS011;9523;42.650;23.386;2023-07-31T09:42:34;2.80;;;2.55;;
18789;SDS011;9523;42.650;23.386;2023-07-31T09:45:07;3.53;;;2.50;;
18789;SDS011;9523;42.650;23.386;2023-07-31T09:47:33;3.28;;;2.80;;
18789;SDS011;9523;42.650;23.386;2023-07-31T09:50:00;4.78;;;3.10;;
18789;SDS011;9523;42.650;23.386;2023-07-31T09:52:27;4.25;;;2.70;;
18789;SDS011;9523;42.650;23.386;2023-07-31T09:54:53;4.53;;;2.92;;
18789;SDS011;9523;42.650;23.386;2023-07-31T09:57:24;7.40;;;2.80;;
18789;SDS011;9523;42.650;23.386;2023-07-31T09:59:53;2.92;;;2.60;;
18789;SDS011;9523;42.650;23.386;2023-07-31T10:02:21;2.83;;;2.60;;
18789;SDS011;9523;42.650;23.386;2023-07-31T10:04:48;4.85;;;2.53;;
18789;SDS011;9523;42.650;23.386;2023-07-31T10:07:16;2.75;;;2.42;;
18789;SDS011;9523;42.650;23.386;2023-07-31T10:09:43;5.10;;;2.22;;
18789;SDS011;9523;42.650;23.386;2023-07-31T10:12:13;2.53;;;2.17;;
18789;SDS011;9523;42.650;23.386;2023-07-31T10:14:42;2.70;;;2.20;;
18789;SDS011;9523;42.650;23.386;2023-07-31T10:17:09;2.63;;;2.40;;
18789;SDS011;9523;42.650;23.386;2023-07-31T10:19:36;4.43;;;2.60;;
18789;SDS011;9523;42.650;23.386;2023-07-31T10:22:03;4.20;;;2.35;;
18789;SDS011;9523;42.650;23.386;2023-07-31T10:24:30;2.42;;;2.22;;
18789;SDS011;9523;42.650;23.386;2023-07-31T10:26:57;3.25;;;2.10;;
18789;SDS011;9523;42.650;23.386;2023-07-31T10:29:24;4.80;;;2.22;;
18789;SDS011;9523;42.650;23.386;2023-07-31T10:31:53;2.30;;;2.10;;
18789;SDS011;9523;42.650;23.386;2023-07-31T10:34:20;3.00;;;2.03;;
18789;SDS011;9523;42.650;23.386;2023-07-31T10:36:46;4.82;;;2.35;;
18789;SDS011;9523;42.650;23.386;2023-07-31T10:39:33;4.40;;;2.25;;
18789;SDS011;9523;42.650;23.386;2023-07-31T10:42:06;3.13;;;1.95;;
18789;SDS011;9523;42.650;23.386;2023-07-31T10:44:35;2.50;;;2.00;;
18789;SDS011;9523;42.650;23.386;2023-07-31T10:47:07;4.95;;;2.25;;
18789;SDS011;9523;42.650;23.386;2023-07-31T10:49:34;2.60;;;1.75;;
18789;SDS011;9523;42.650;23.386;2023-07-31T10:52:02;4.80;;;2.17;;
18789;SDS011;9523;42.650;23.386;2023-07-31T10:54:29;2.72;;;1.67;;
18789;SDS011;9523;42.650;23.386;2023-07-31T10:56:56;2.65;;;2.00;;
18789;SDS011;9523;42.650;23.386;2023-07-31T10:59:26;2.28;;;1.77;;
18789;SDS011;9523;42.650;23.386;2023-07-31T11:01:53;2.38;;;1.63;;
18789;SDS011;9523;42.650;23.386;2023-07-31T11:04:23;2.72;;;1.80;;
18789;SDS011;9523;42.650;23.386;2023-07-31T11:06:56;3.25;;;1.95;;
18789;SDS011;9523;42.650;23.386;2023-07-31T11:09:24;2.20;;;2.00;;
18789;SDS011;9523;42.650;23.386;2023-07-31T11:11:52;2.60;;;1.90;;
18789;SDS011;9523;42.650;23.386;2023-07-31T11:14:20;2.03;;;1.83;;
18789;SDS011;9523;42.650;23.386;2023-07-31T11:16:49;3.15;;;2.10;;
18789;SDS011;9523;42.650;23.386;2023-07-31T11:19:20;4.47;;;1.90;;
18789;SDS011;9523;42.650;23.386;2023-07-31T11:21:48;3.83;;;2.10;;
18789;SDS011;9523;42.650;23.386;2023-07-31T11:24:15;4.30;;;1.90;;
18789;SDS011;9523;42.650;23.386;2023-07-31T11:26:47;1.80;;;1.70;;
18789;SDS011;9523;42.650;23.386;2023-07-31T11:29:14;2.10;;;1.60;;
18789;SDS011;9523;42.650;23.386;2023-07-31T11:31:41;2.05;;;1.58;;
18789;SDS011;9523;42.650;23.386;2023-07-31T11:34:08;6.38;;;2.83;;
18789;SDS011;9523;42.650;23.386;2023-07-31T11:36:35;6.43;;;3.78;;
18789;SDS011;9523;42.650;23.386;2023-07-31T11:39:05;3.03;;;1.60;;
18789;SDS011;9523;42.650;23.386;2023-07-31T11:41:32;2.28;;;1.67;;
18789;SDS011;9523;42.650;23.386;2023-07-31T11:43:59;4.70;;;1.92;;
18789;SDS011;9523;42.650;23.386;2023-07-31T11:46:26;1.88;;;1.73;;
18789;SDS011;9523;42.650;23.386;2023-07-31T11:48:52;2.25;;;1.60;;
18789;SDS011;9523;42.650;23.386;2023-07-31T11:51:25;2.30;;;1.90;;
18789;SDS011;9523;42.650;23.386;2023-07-31T11:53:53;2.90;;;1.70;;
18789;SDS011;9523;42.650;23.386;2023-07-31T11:56:22;2.15;;;1.95;;
18789;SDS011;9523;42.650;23.386;2023-07-31T11:58:53;2.92;;;2.10;;
18789;SDS011;9523;42.650;23.386;2023-07-31T12:01:21;4.60;;;1.90;;
18789;SDS011;9523;42.650;23.386;2023-07-31T12:03:51;2.92;;;2.17;;
18789;SDS011;9523;42.650;23.386;2023-07-31T12:06:18;2.15;;;1.95;;
18789;SDS011;9523;42.650;23.386;2023-07-31T12:08:46;2.65;;;1.92;;
18789;SDS011;9523;42.650;23.386;2023-07-31T12:11:12;2.22;;;2.03;;
18789;SDS011;9523;42.650;23.386;2023-07-31T12:13:41;2.25;;;2.05;;
18789;SDS011;9523;42.650;23.386;2023-07-31T12:16:08;1.60;;;1.50;;
18789;SDS011;9523;42.650;23.386;2023-07-31T12:18:35;5.80;;;2.10;;
18789;SDS011;9523;42.650;23.386;2023-07-31T12:21:02;2.15;;;1.95;;
18789;SDS011;9523;42.650;23.386;2023-07-31T12:23:31;4.47;;;2.42;;
18789;SDS011;9523;42.650;23.386;2023-07-31T12:26:01;2.80;;;2.50;;
18789;SDS011;9523;42.650;23.386;2023-07-31T12:28:28;14.55;;;3.03;;
18789;SDS011;9523;42.650;23.386;2023-07-31T12:30:58;3.55;;;2.33;;
18789;SDS011;9523;42.650;23.386;2023-07-31T12:33:29;2.72;;;2.28;;
18789;SDS011;9523;42.650;23.386;2023-07-31T12:35:56;3.10;;;2.78;;
18789;SDS011;9523;42.650;23.386;2023-07-31T12:38:23;4.50;;;3.20;;
18789;SDS011;9523;42.650;23.386;2023-07-31T12:40:49;4.30;;;3.90;;
18789;SDS011;9523;42.650;23.386;2023-07-31T12:43:16;4.40;;;4.00;;
18789;SDS011;9523;42.650;23.386;2023-07-31T12:45:43;4.70;;;3.70;;
18789;SDS011;9523;42.650;23.386;2023-07-31T12:48:11;4.63;;;3.80;;
18789;SDS011;9523;42.650;23.386;2023-07-31T12:50:38;4.50;;;3.80;;
18789;SDS011;9523;42.650;23.386;2023-07-31T12:53:05;6.43;;;3.88;;
18789;SDS011;9523;42.650;23.386;2023-07-31T12:55:32;5.22;;;3.40;;
18789;SDS011;9523;42.650;23.386;2023-07-31T12:57:59;6.20;;;3.67;;
18789;SDS011;9523;42.650;23.386;2023-07-31T13:00:26;3.35;;;3.05;;
18789;SDS011;9523;42.650;23.386;2023-07-31T13:02:53;3.58;;;3.10;;
18789;SDS011;9523;42.650;23.386;2023-07-31T13:05:21;4.25;;;3.25;;
18789;SDS011;9523;42.650;23.386;2023-07-31T13:07:48;4.05;;;3.28;;
18789;SDS011;9523;42.650;23.386;2023-07-31T13:10:14;4.30;;;3.90;;
18789;SDS011;9523;42.650;23.386;2023-07-31T13:12:41;4.35;;;3.88;;
18789;SDS011;9523;42.650;23.386;2023-07-31T13:15:08;7.18;;;4.10;;
18789;SDS011;9523;42.650;23.386;2023-07-31T13:17:34;3.95;;;3.55;;
18789;SDS011;9523;42.650;23.386;2023-07-31T13:20:01;5.13;;;4.63;;
18789;SDS011;9523;42.650;23.386;2023-07-31T13:22:29;5.80;;;4.95;;
18789;SDS011;9523;42.650;23.386;2023-07-31T13:24:56;5.60;;;5.10;;
18789;SDS011;9523;42.650;23.386;2023-07-31T13:27:23;8.38;;;4.72;;
18789;SDS011;9523;42.650;23.386;2023-07-31T13:29:50;7.05;;;6.28;;
18789;SDS011;9523;42.650;23.386;2023-07-31T13:32:18;7.03;;;4.25;;
18789;SDS011;9523;42.650;23.386;2023-07-31T13:34:44;4.57;;;4.18;;
18789;SDS011;9523;42.650;23.386;2023-07-31T13:37:11;5.25;;;4.15;;
18789;SDS011;9523;42.650;23.386;2023-07-31T13:39:39;6.53;;;4.00;;
18789;SDS011;9523;42.650;23.386;2023-07-31T13:42:06;3.45;;;3.15;;
18789;SDS011;9523;42.650;23.386;2023-07-31T13:44:33;4.07;;;3.67;;
18789;SDS011;9523;42.650;23.386;2023-07-31T13:47:00;4.97;;;3.50;;
18789;SDS011;9523;42.650;23.386;2023-07-31T13:49:27;3.72;;;3.38;;
18789;SDS011;9523;42.650;23.386;2023-07-31T13:51:53;4.30;;;3.63;;
18789;SDS011;9523;42.650;23.386;2023-07-31T13:54:20;5.25;;;3.60;;
18789;SDS011;9523;42.650;23.386;2023-07-31T13:56:48;8.27;;;3.70;;
18789;SDS011;9523;42.650;23.386;2023-07-31T13:59:15;3.90;;;3.50;;
18789;SDS011;9523;42.650;23.386;2023-07-31T14:01:42;5.30;;;3.45;;
18789;SDS011;9523;42.650;23.386;2023-07-31T14:04:08;4.07;;;3.67;;
18789;SDS011;9523;42.650;23.386;2023-07-31T14:06:35;4.70;;;2.78;;
18789;SDS011;9523;42.650;23.386;2023-07-31T14:09:02;3.35;;;3.05;;
18789;SDS011;9523;42.650;23.386;2023-07-31T14:11:30;3.28;;;2.97;;
18789;SDS011;9523;42.650;23.386;2023-07-31T14:13:58;3.60;;;3.30;;
18789;SDS011;9523;42.650;23.386;2023-07-31T14:16:24;4.07;;;3.40;;
18789;SDS011;9523;42.650;23.386;2023-07-31T14:18:51;3.72;;;3.42;;
18789;SDS011;9523;42.650;23.386;2023-07-31T14:21:18;3.13;;;2.83;;
18789;SDS011;9523;42.650;23.386;2023-07-31T14:23:45;3.90;;;3.50;;
18789;SDS011;9523;42.650;23.386;2023-07-31T14:26:11;4.90;;;3.42;;
18789;SDS011;9523;42.650;23.386;2023-07-31T14:28:38;4.05;;;3.60;;
18789;SDS011;9523;42.650;23.386;2023-07-31T14:31:06;3.70;;;3.40;;
18789;SDS011;9523;42.650;23.386;2023-07-31T14:33:33;4.57;;;3.40;;
18789;SDS011;9523;42.650;23.386;2023-07-31T14:35:59;4.80;;;3.50;;
18789;SDS011;9523;42.650;23.386;2023-07-31T14:38:26;3.85;;;3.35;;